Time;durP1;ratioP1;P1;durP2;ratioP2;P2;SDS_P1;SDS_P2;PMS_P1;PMS_P2;Temp;Humidity;BMP_temperature;BMP_pressure;BME280_temperature;BME280_humidity;BME280_pressure;Samples;Min_cycle;Max_cycle;Signal;HPM_P1;HPM_P2
2023/11/26 00:02:15;;;;;;;22.60;21.80;;;21.10;56.90;;;;;;4977553;28;20546;-71
2023/11/26 00:04:42;;;;;;;22.37;21.47;;;21.10;56.90;;;;;;4980836;28;20476;-70
2023/11/26 00:07:09;;;;;;;22.93;22.13;;;21.10;56.90;;;;;;4981107;28;20499;-71
2023/11/26 00:09:37;;;;;;;23.67;22.87;;;21.10;56.90;;;;;;4983516;28;20477;-70
2023/11/26 00:12:07;;;;;;;21.17;20.47;;;21.10;56.80;;;;;;4978943;28;20511;-71
2023/11/26 00:14:34;;;;;;;23.20;22.30;;;21.10;56.90;;;;;;4983087;28;20444;-70
2023/11/26 00:17:01;;;;;;;22.77;21.97;;;21.10;56.90;;;;;;4984128;28;20859;-71
2023/11/26 00:19:29;;;;;;;21.90;21.10;;;21.00;56.80;;;;;;4982753;28;20485;-71
2023/11/26 00:21:56;;;;;;;21.60;20.90;;;21.10;56.80;;;;;;4986009;28;20450;-71
2023/11/26 00:24:23;;;;;;;22.73;22.00;;;21.10;56.80;;;;;;4976513;28;20483;-72
2023/11/26 00:26:51;;;;;;;25.00;24.03;;;21.00;56.80;;;;;;4984236;28;20475;-71
2023/11/26 00:29:18;;;;;;;26.00;25.10;;;21.00;56.80;;;;;;4983656;28;20486;-70
2023/11/26 00:31:45;;;;;;;26.67;25.77;;;21.00;56.70;;;;;;4980603;28;20513;-71
2023/11/26 00:34:12;;;;;;;26.87;25.87;;;21.00;56.80;;;;;;4980666;28;20486;-71
2023/11/26 00:36:39;;;;;;;22.13;21.33;;;21.00;56.70;;;;;;4987378;28;20468;-70
2023/11/26 00:39:06;;;;;;;20.93;20.33;;;21.00;56.70;;;;;;4987057;28;20490;-70
2023/11/26 00:41:33;;;;;;;23.20;22.40;;;21.00;56.80;;;;;;4981688;28;20475;-71
2023/11/26 00:44:01;;;;;;;23.00;22.20;;;21.00;56.80;;;;;;4981794;28;20495;-71
2023/11/26 00:46:28;;;;;;;24.00;22.90;;;21.00;56.80;;;;;;4982182;28;20475;-71
2023/11/26 00:48:54;;;;;;;23.63;22.83;;;21.00;56.80;;;;;;4983653;28;20501;-70
2023/11/26 00:51:24;;;;;;;21.73;20.90;;;21.00;56.80;;;;;;4983002;28;20517;-71
2023/11/26 00:53:51;;;;;;;22.33;21.63;;;21.00;56.80;;;;;;4983356;28;20453;-71
2023/11/26 00:56:20;;;;;;;22.17;21.40;;;21.00;56.80;;;;;;4977348;28;21158;-71
2023/11/26 00:58:46;;;;;;;22.13;21.43;;;21.00;56.90;;;;;;4983602;28;20549;-71
2023/11/26 01:01:15;;;;;;;22.90;22.10;;;21.00;56.80;;;;;;4983893;28;20474;-71
2023/11/26 01:03:42;;;;;;;22.80;21.90;;;21.00;56.80;;;;;;4980301;28;20436;-71
2023/11/26 01:06:09;;;;;;;21.90;21.20;;;20.90;56.80;;;;;;4986300;28;20482;-72
2023/11/26 01:08:36;;;;;;;22.40;21.70;;;20.90;56.80;;;;;;4980974;28;20498;-71
2023/11/26 01:11:06;;;;;;;22.30;21.50;;;21.00;56.90;;;;;;4986277;28;20482;-71
2023/11/26 01:13:32;;;;;;;21.20;20.50;;;21.00;56.90;;;;;;4981811;28;20446;-71
2023/11/26 01:16:00;;;;;;;22.47;21.63;;;20.90;56.80;;;;;;4988047;28;20470;-71
2023/11/26 01:18:28;;;;;;;20.97;20.37;;;20.90;56.80;;;;;;4980354;28;20463;-72
2023/11/26 01:20:55;;;;;;;21.20;20.50;;;20.90;56.80;;;;;;4987119;28;20479;-71
2023/11/26 01:23:22;;;;;;;21.50;20.80;;;20.90;56.80;;;;;;4986712;28;20485;-71
2023/11/26 01:25:48;;;;;;;22.17;21.30;;;20.90;56.80;;;;;;4983653;28;20960;-71
2023/11/26 01:28:16;;;;;;;21.40;20.70;;;20.90;56.80;;;;;;4983479;28;20475;-71
2023/11/26 01:30:44;;;;;;;22.30;21.33;;;20.90;56.70;;;;;;4989014;28;20463;-71
2023/11/26 01:33:11;;;;;;;20.87;20.07;;;20.90;56.70;;;;;;4983804;28;20455;-71
2023/11/26 01:35:39;;;;;;;20.10;19.50;;;20.90;56.70;;;;;;4991450;28;20531;-71
2023/11/26 01:38:06;;;;;;;20.17;19.47;;;20.90;56.70;;;;;;4989680;28;20881;-71
2023/11/26 01:40:37;;;;;;;21.07;20.27;;;20.90;56.70;;;;;;4984857;28;20447;-71
2023/11/26 01:43:04;;;;;;;20.40;19.70;;;20.90;56.60;;;;;;4981461;28;20481;-70
2023/11/26 01:45:31;;;;;;;20.60;19.90;;;20.90;56.60;;;;;;4984930;28;20822;-71
2023/11/26 01:47:58;;;;;;;20.43;19.73;;;20.90;56.60;;;;;;4983370;28;20511;-70
2023/11/26 01:50:26;;;;;;;21.03;20.23;;;20.90;56.70;;;;;;4988453;28;20435;-69
2023/11/26 01:52:55;;;;;;;19.90;19.30;;;20.90;56.70;;;;;;4983449;28;21011;-70
2023/11/26 01:55:23;;;;;;;20.63;20.00;;;20.80;56.70;;;;;;4991572;28;20454;-70
2023/11/26 01:57:50;;;;;;;20.33;19.70;;;20.80;56.70;;;;;;4987278;28;20498;-71
2023/11/26 02:00:20;;;;;;;20.43;19.73;;;20.90;56.80;;;;;;4981575;28;20452;-69
2023/11/26 02:02:47;;;;;;;20.67;19.97;;;20.90;56.80;;;;;;4983500;28;20452;-70
2023/11/26 02:05:14;;;;;;;20.03;19.43;;;20.90;56.70;;;;;;4983214;28;20482;-71
2023/11/26 02:07:42;;;;;;;20.93;20.17;;;20.90;56.70;;;;;;4986420;28;20997;-70
2023/11/26 02:10:12;;;;;;;20.37;19.70;;;20.90;56.70;;;;;;4985610;28;20476;-71
2023/11/26 02:12:39;;;;;;;20.00;19.30;;;20.90;56.80;;;;;;4991007;28;20482;-70
2023/11/26 02:15:06;;;;;;;20.47;19.57;;;20.90;56.90;;;;;;4989155;28;20475;-70
2023/11/26 02:17:35;;;;;;;20.27;19.67;;;20.80;56.90;;;;;;4984493;28;20470;-70
2023/11/26 02:20:04;;;;;;;21.00;20.07;;;20.80;56.80;;;;;;4982747;28;20822;-72
2023/11/26 02:22:31;;;;;;;20.97;20.17;;;20.80;56.80;;;;;;4982997;28;20442;-70
2023/11/26 02:24:59;;;;;;;21.57;20.80;;;20.80;56.70;;;;;;4982916;28;20952;-70
2023/11/26 02:27:26;;;;;;;20.80;20.10;;;20.80;56.70;;;;;;4990698;28;20477;-71
2023/11/26 02:29:53;;;;;;;21.87;21.10;;;20.80;56.70;;;;;;4987297;28;20486;-70
2023/11/26 02:32:20;;;;;;;21.03;20.20;;;20.80;56.70;;;;;;4985621;28;21175;-70
2023/11/26 02:34:47;;;;;;;20.60;19.90;;;20.80;56.70;;;;;;4982627;28;20538;-70
2023/11/26 02:37:14;;;;;;;20.13;19.53;;;20.80;56.70;;;;;;4982747;28;20507;-70
2023/11/26 02:39:41;;;;;;;21.60;20.90;;;20.80;56.70;;;;;;4985116;28;20479;-70
2023/11/26 02:42:09;;;;;;;21.10;20.40;;;20.80;56.70;;;;;;4985778;28;20966;-69
2023/11/26 02:44:36;;;;;;;21.13;20.43;;;20.80;56.60;;;;;;4985425;28;20487;-69
2023/11/26 02:47:04;;;;;;;20.57;19.97;;;20.80;56.70;;;;;;4985577;28;20479;-70
2023/11/26 02:49:31;;;;;;;21.90;21.10;;;20.80;56.70;;;;;;4984445;28;20498;-70
2023/11/26 02:51:58;;;;;;;22.60;21.83;;;20.80;56.70;;;;;;4981713;28;20507;-69
2023/11/26 02:54:25;;;;;;;23.33;22.40;;;20.80;56.60;;;;;;4982556;28;20444;-70
2023/11/26 02:56:52;;;;;;;23.00;22.20;;;20.80;56.60;;;;;;4985426;28;20497;-70
2023/11/26 02:59:21;;;;;;;21.70;20.73;;;20.80;56.60;;;;;;4985825;28;20475;-70
2023/11/26 03:01:48;;;;;;;20.67;19.97;;;20.80;56.60;;;;;;4980017;28;20801;-70
2023/11/26 03:04:19;;;;;;;22.20;21.40;;;20.80;56.50;;;;;;4985520;28;20458;-71
2023/11/26 03:06:46;;;;;;;20.20;19.50;;;20.70;57.00;;;;;;4982118;28;20443;-70
2023/11/26 03:09:37;;;;;;;20.70;19.80;;;20.70;56.50;;;;;;4988856;28;20454;-70
2023/11/26 03:14:53;;;;;;;22.90;22.10;;;20.70;56.50;;;;;;4983154;28;20430;-69
2023/11/26 03:17:20;;;;;;;21.73;21.03;;;20.70;56.50;;;;;;4989432;28;20466;-70
2023/11/26 03:19:48;;;;;;;22.77;21.87;;;20.70;56.50;;;;;;4981752;28;20448;-69
2023/11/26 03:22:15;;;;;;;21.20;20.50;;;20.70;56.50;;;;;;4988621;28;20450;-70
2023/11/26 03:24:43;;;;;;;22.13;21.33;;;20.70;56.50;;;;;;4983867;28;20475;-70
2023/11/26 03:27:12;;;;;;;20.97;20.10;;;20.70;56.40;;;;;;4985047;28;20471;-70
2023/11/26 03:29:40;;;;;;;20.60;20.00;;;20.70;56.40;;;;;;4982671;28;20446;-70
2023/11/26 03:32:08;;;;;;;21.90;21.10;;;20.70;56.40;;;;;;4981506;28;20479;-70
2023/11/26 03:34:36;;;;;;;20.53;19.93;;;20.70;56.40;;;;;;4983020;28;20472;-70
2023/11/26 03:37:03;;;;;;;20.27;19.67;;;20.70;56.40;;;;;;4981446;28;20463;-70
2023/11/26 03:39:36;;;;;;;20.20;19.50;;;20.70;56.40;;;;;;4981834;28;20475;-70
2023/11/26 03:42:03;;;;;;;19.97;19.27;;;20.70;56.40;;;;;;4984762;28;20443;-70
2023/11/26 03:44:30;;;;;;;19.90;19.20;;;20.70;56.30;;;;;;4983791;28;20458;-71
2023/11/26 03:46:57;;;;;;;21.40;20.60;;;20.70;56.30;;;;;;4985833;28;20857;-70
2023/11/26 03:49:25;;;;;;;19.70;19.10;;;20.70;56.30;;;;;;4979048;28;20479;-72
2023/11/26 03:51:53;;;;;;;19.63;19.00;;;20.70;56.30;;;;;;4984437;28;20528;-71
2023/11/26 03:54:20;;;;;;;19.53;18.90;;;20.60;56.20;;;;;;4980845;28;20451;-69
2023/11/26 03:56:45;;;;;;;20.30;19.60;;;20.70;56.30;;;;;;4984232;28;20961;-70
2023/11/26 03:59:12;;;;;;;20.00;19.00;;;20.70;56.20;;;;;;4984407;28;20491;-70
2023/11/26 04:01:39;;;;;;;20.10;19.50;;;20.70;56.20;;;;;;4980719;28;20231;-70
2023/11/26 04:04:08;;;;;;;20.53;19.83;;;20.70;56.20;;;;;;4979502;28;20484;-71
2023/11/26 04:06:37;;;;;;;20.93;20.23;;;20.60;56.10;;;;;;4981822;28;20556;-70
2023/11/26 04:09:04;;;;;;;21.33;20.53;;;20.70;56.20;;;;;;4981186;28;20515;-70
2023/11/26 04:11:31;;;;;;;21.73;21.00;;;20.70;56.20;;;;;;4983291;28;20444;-70
2023/11/26 04:13:58;;;;;;;20.20;19.60;;;20.70;56.10;;;;;;4981226;28;20515;-70
2023/11/26 04:16:24;;;;;;;20.67;19.97;;;20.70;56.10;;;;;;4981127;28;20510;-71
2023/11/26 04:18:51;;;;;;;21.07;20.27;;;20.70;56.10;;;;;;4980890;28;20530;-69
2023/11/26 04:21:18;;;;;;;20.37;19.67;;;20.60;56.50;;;;;;4981064;28;20476;-71
2023/11/26 04:23:46;;;;;;;20.97;20.27;;;20.60;56.00;;;;;;4981030;28;20471;-70
2023/11/26 04:26:13;;;;;;;20.37;19.77;;;20.60;55.90;;;;;;4981106;28;20955;-69
2023/11/26 04:28:40;;;;;;;20.97;20.17;;;20.60;55.90;;;;;;4988834;28;20498;-70
2023/11/26 04:31:07;;;;;;;20.87;20.07;;;20.60;55.90;;;;;;4986452;28;20501;-71
2023/11/26 04:33:34;;;;;;;21.00;20.20;;;20.60;55.90;;;;;;4983045;28;20510;-70
2023/11/26 04:36:01;;;;;;;21.70;20.90;;;20.60;55.90;;;;;;4980202;28;20447;-70
2023/11/26 04:38:28;;;;;;;21.40;20.70;;;20.60;55.90;;;;;;4980969;28;20499;-70
2023/11/26 04:40:56;;;;;;;20.93;20.23;;;20.60;55.90;;;;;;4984061;28;20481;-71
2023/11/26 04:43:23;;;;;;;21.07;20.37;;;20.60;55.90;;;;;;4984176;28;20478;-70
2023/11/26 04:45:50;;;;;;;20.30;19.70;;;20.60;56.00;;;;;;4980827;28;20861;-70
2023/11/26 04:48:17;;;;;;;20.70;19.90;;;20.60;56.00;;;;;;4979916;28;20930;-70
2023/11/26 04:50:44;;;;;;;20.70;20.10;;;20.60;56.00;;;;;;4989908;28;20467;-70
2023/11/26 04:53:11;;;;;;;21.33;20.53;;;20.60;56.10;;;;;;4984299;28;20483;-71
2023/11/26 04:55:38;;;;;;;21.00;20.30;;;20.60;56.10;;;;;;4986117;28;20447;-70
2023/11/26 04:58:06;;;;;;;20.77;20.03;;;20.60;56.10;;;;;;4984416;28;20509;-70
2023/11/26 05:00:33;;;;;;;21.93;21.23;;;20.60;56.10;;;;;;4985208;28;20488;-70
2023/11/26 05:03:03;;;;;;;21.60;20.90;;;20.60;56.10;;;;;;4987675;28;20473;-70
2023/11/26 05:05:30;;;;;;;21.50;20.80;;;20.60;56.10;;;;;;4987452;28;20556;-69
2023/11/26 05:07:57;;;;;;;21.60;20.90;;;20.60;56.10;;;;;;4986313;28;20459;-71
2023/11/26 05:10:26;;;;;;;22.00;21.20;;;20.60;56.10;;;;;;4984247;28;20448;-70
2023/11/26 05:12:53;;;;;;;21.53;20.33;;;20.60;56.10;;;;;;4984214;28;20488;-70
2023/11/26 05:15:22;;;;;;;22.00;21.30;;;20.60;56.10;;;;;;4984242;28;20483;-70
2023/11/26 05:17:49;;;;;;;21.00;20.40;;;20.60;56.10;;;;;;4986727;28;20469;-69
2023/11/26 05:20:17;;;;;;;21.30;20.60;;;20.60;56.10;;;;;;4984435;28;20459;-69
2023/11/26 05:22:43;;;;;;;21.33;20.63;;;20.60;56.10;;;;;;4986085;28;20443;-70
2023/11/26 05:25:11;;;;;;;21.13;20.53;;;20.60;56.10;;;;;;4986926;28;20477;-71
2023/11/26 05:27:38;;;;;;;21.67;20.87;;;20.50;56.00;;;;;;4985329;28;20533;-71
2023/11/26 05:30:06;;;;;;;22.27;21.53;;;20.60;56.10;;;;;;4988622;28;20517;-71
2023/11/26 05:32:35;;;;;;;20.30;19.70;;;20.60;56.10;;;;;;4982048;28;20484;-71
2023/11/26 05:35:12;;;;;;;22.00;21.10;;;20.60;56.10;;;;;;4986755;28;20809;-71
2023/11/26 05:37:39;;;;;;;20.83;20.13;;;20.50;56.00;;;;;;4985138;28;20464;-71
2023/11/26 05:40:09;;;;;;;22.70;22.00;;;20.60;56.10;;;;;;4983617;28;20540;-71
2023/11/26 05:42:36;;;;;;;21.37;20.67;;;20.50;56.10;;;;;;4984365;28;20440;-71
2023/11/26 05:45:04;;;;;;;21.00;20.30;;;20.50;56.10;;;;;;4986848;28;20475;-71
2023/11/26 05:47:32;;;;;;;21.87;21.17;;;20.50;56.20;;;;;;4985906;28;20506;-71
2023/11/26 05:50:00;;;;;;;22.10;21.20;;;20.60;56.20;;;;;;4987320;28;20466;-71
2023/11/26 05:52:27;;;;;;;23.87;23.03;;;20.50;56.20;;;;;;4986661;28;20565;-70
2023/11/26 05:54:54;;;;;;;21.53;20.73;;;20.50;56.20;;;;;;4983254;28;20446;-70
2023/11/26 05:57:21;;;;;;;21.00;20.20;;;20.50;56.20;;;;;;4988153;28;20497;-70
2023/11/26 05:59:48;;;;;;;21.87;21.07;;;20.50;56.30;;;;;;4983710;28;20451;-70
2023/11/26 06:02:15;;;;;;;21.80;21.10;;;20.50;56.40;;;;;;4988914;28;20965;-70
2023/11/26 06:04:42;;;;;;;21.83;21.13;;;20.50;57.10;;;;;;4984946;28;20471;-71
2023/11/26 06:07:10;;;;;;;20.77;20.17;;;20.50;56.80;;;;;;4986194;28;20503;-70
2023/11/26 06:09:37;;;;;;;22.70;21.80;;;20.50;56.80;;;;;;4985163;28;20471;-70
2023/11/26 06:12:05;;;;;;;23.17;22.03;;;20.50;56.70;;;;;;4982847;28;20468;-71
2023/11/26 06:14:33;;;;;;;21.47;20.77;;;20.50;56.70;;;;;;4986177;28;20502;-71
2023/11/26 06:17:00;;;;;;;24.60;23.80;;;20.50;56.70;;;;;;4986860;28;20522;-71
2023/11/26 06:19:27;;;;;;;22.20;21.30;;;20.50;56.70;;;;;;4986247;28;20455;-70
2023/11/26 06:21:54;;;;;;;23.07;22.07;;;20.50;56.70;;;;;;4982898;28;20479;-71
2023/11/26 06:24:22;;;;;;;22.20;21.50;;;20.50;56.60;;;;;;4981959;28;20483;-71
2023/11/26 06:26:49;;;;;;;20.83;20.20;;;20.50;56.60;;;;;;4984894;28;20476;-70
2023/11/26 06:29:16;;;;;;;22.00;21.30;;;20.50;56.60;;;;;;4985942;28;20471;-72
2023/11/26 06:31:44;;;;;;;21.50;20.80;;;20.50;56.60;;;;;;4983960;28;20467;-71
2023/11/26 06:34:11;;;;;;;20.70;19.90;;;20.50;56.70;;;;;;4987769;28;21017;-69
2023/11/26 06:36:38;;;;;;;22.10;21.40;;;20.50;56.70;;;;;;4979662;28;20882;-71
2023/11/26 06:39:06;;;;;;;21.60;20.80;;;20.50;56.70;;;;;;4989176;28;20467;-70
2023/11/26 06:41:38;;;;;;;22.00;21.10;;;20.50;56.70;;;;;;4982437;28;21122;-71
2023/11/26 06:44:06;;;;;;;21.80;21.10;;;20.50;56.70;;;;;;4985587;28;20584;-71
2023/11/26 06:46:34;;;;;;;23.13;22.33;;;20.50;56.70;;;;;;4985102;28;20458;-71
2023/11/26 06:49:01;;;;;;;22.93;22.20;;;20.50;56.70;;;;;;4981484;28;20812;-71
2023/11/26 06:51:27;;;;;;;22.07;21.37;;;20.50;56.70;;;;;;4985334;28;20888;-70
2023/11/26 06:53:54;;;;;;;22.90;22.10;;;20.40;56.70;;;;;;4982075;28;20915;-71
2023/11/26 06:56:22;;;;;;;22.80;22.00;;;20.40;56.70;;;;;;4988709;28;20498;-70
2023/11/26 06:58:50;;;;;;;22.80;21.90;;;20.50;56.80;;;;;;4982907;28;20506;-71
2023/11/26 07:01:17;;;;;;;22.23;21.63;;;20.40;56.80;;;;;;4980419;28;20945;-71
2023/11/26 07:03:44;;;;;;;22.03;21.43;;;20.50;56.90;;;;;;4983566;28;20466;-70
2023/11/26 07:06:12;;;;;;;23.30;22.60;;;20.50;56.90;;;;;;4981762;28;20868;-68
2023/11/26 07:08:41;;;;;;;24.03;23.23;;;20.50;56.80;;;;;;4987445;28;20509;-71
2023/11/26 07:11:16;;;;;;;24.07;23.27;;;20.40;56.80;;;;;;4981896;28;20443;-71
2023/11/26 07:13:43;;;;;;;23.70;22.87;;;20.50;56.80;;;;;;4988880;28;20510;-71
2023/11/26 07:16:11;;;;;;;24.67;23.77;;;20.50;56.80;;;;;;4986797;28;20454;-70
2023/11/26 07:18:38;;;;;;;24.57;23.67;;;20.50;57.30;;;;;;4978934;28;20559;-71
2023/11/26 07:21:06;;;;;;;23.20;22.20;;;20.50;58.00;;;;;;4984751;28;20447;-69
2023/11/26 07:23:34;;;;;;;23.33;22.47;;;20.40;58.00;;;;;;4984598;28;20481;-69
2023/11/26 07:26:01;;;;;;;25.97;24.67;;;20.40;58.10;;;;;;4981692;28;20452;-70
2023/11/26 07:28:29;;;;;;;25.67;24.37;;;20.50;58.20;;;;;;4981453;28;20491;-70
2023/11/26 07:30:56;;;;;;;24.03;23.00;;;20.50;58.30;;;;;;4986014;28;20527;-70
2023/11/26 07:33:25;;;;;;;23.67;22.67;;;20.50;58.30;;;;;;4981317;28;20515;-70
2023/11/26 07:35:52;;;;;;;23.77;22.97;;;20.40;58.20;;;;;;4989477;28;20969;-70
2023/11/26 07:38:19;;;;;;;25.53;24.43;;;20.40;58.10;;;;;;4987329;28;20486;-69
2023/11/26 07:40:46;;;;;;;25.57;24.53;;;20.40;58.00;;;;;;4982580;28;20458;-69
2023/11/26 07:43:13;;;;;;;25.90;24.77;;;20.50;58.60;;;;;;4980683;28;20443;-69
2023/11/26 07:45:40;;;;;;;24.43;23.53;;;20.50;58.70;;;;;;4982227;28;20444;-69
2023/11/26 07:48:07;;;;;;;25.10;24.20;;;20.50;58.80;;;;;;4984626;28;20837;-70
2023/11/26 07:50:36;;;;;;;25.47;24.47;;;20.40;58.80;;;;;;4979885;28;20444;-70
2023/11/26 07:53:05;;;;;;;24.00;22.90;;;20.50;59.10;;;;;;4984283;28;20994;-69
2023/11/26 07:55:34;;;;;;;24.20;23.27;;;20.40;59.10;;;;;;4984469;28;20439;-69
2023/11/26 07:58:01;;;;;;;24.10;23.20;;;20.50;59.30;;;;;;4981137;28;20464;-69
2023/11/26 08:00:28;;;;;;;24.10;23.00;;;20.50;59.30;;;;;;4983993;28;20529;-70
2023/11/26 08:02:54;;;;;;;24.20;23.30;;;20.50;59.20;;;;;;4979637;28;20467;-69
2023/11/26 08:05:22;;;;;;;24.20;23.30;;;20.50;59.00;;;;;;4984307;28;20470;-70
2023/11/26 08:07:51;;;;;;;24.80;23.90;;;20.50;59.00;;;;;;4981959;28;20550;-69
2023/11/26 08:10:26;;;;;;;25.30;24.40;;;20.40;58.90;;;;;;4980838;28;20497;-70
2023/11/26 08:12:53;;;;;;;23.83;23.03;;;20.40;59.40;;;;;;4984488;28;20451;-69
2023/11/26 08:15:21;;;;;;;24.43;23.53;;;20.50;59.00;;;;;;4984151;28;20477;-70
2023/11/26 08:17:50;;;;;;;24.43;23.53;;;20.40;59.00;;;;;;4982077;28;20458;-70
2023/11/26 08:20:18;;;;;;;24.13;23.23;;;20.40;59.00;;;;;;4986119;28;20931;-69
2023/11/26 08:22:46;;;;;;;23.53;22.73;;;20.50;59.20;;;;;;4982186;28;20448;-70
2023/11/26 08:25:18;;;;;;;22.60;21.80;;;20.50;59.50;;;;;;4986120;28;20534;-71
2023/11/26 08:27:48;;;;;;;24.00;23.10;;;20.50;59.40;;;;;;4986505;28;20462;-69
2023/11/26 08:30:30;;;;;;;22.33;21.50;;;20.50;59.40;;;;;;4984728;28;20470;-70
2023/11/26 08:32:58;;;;;;;25.23;24.03;;;20.50;59.40;;;;;;4988635;28;20517;-69
2023/11/26 08:35:27;;;;;;;24.60;23.60;;;20.50;59.50;;;;;;4982430;28;20452;-69
2023/11/26 08:37:55;;;;;;;23.77;22.80;;;20.60;59.50;;;;;;4985252;28;20476;-68
2023/11/26 08:40:25;;;;;;;24.00;23.20;;;20.60;59.70;;;;;;4984427;28;20538;-70
2023/11/26 08:42:54;;;;;;;23.40;22.60;;;20.60;59.70;;;;;;4986057;28;21043;-75
2023/11/26 08:45:22;;;;;;;23.70;22.90;;;20.60;59.80;;;;;;4987657;28;21197;-76
2023/11/26 08:47:51;;;;;;;23.67;22.70;;;20.70;60.30;;;;;;4985585;28;20482;-74
2023/11/26 08:50:26;;;;;;;24.10;23.17;;;20.70;60.70;;;;;;4984449;28;20479;-73
2023/11/26 08:52:56;;;;;;;23.30;22.60;;;20.70;61.00;;;;;;4987872;28;20447;-73
2023/11/26 08:55:24;;;;;;;24.20;23.30;;;20.70;61.10;;;;;;4987419;28;20831;-70
2023/11/26 08:57:53;;;;;;;23.87;23.00;;;20.80;61.00;;;;;;4985382;28;20544;-67
2023/11/26 09:00:22;;;;;;;24.63;23.73;;;20.80;61.20;;;;;;4990272;28;20439;-72
2023/11/26 09:02:51;;;;;;;24.23;23.43;;;20.80;61.20;;;;;;4983674;28;20508;-69
2023/11/26 09:05:23;;;;;;;24.83;23.57;;;20.80;60.70;;;;;;4983837;28;20928;-70
2023/11/26 09:07:51;;;;;;;26.17;25.10;;;20.90;61.60;;;;;;4985728;28;20530;-72
2023/11/26 09:10:20;;;;;;;25.27;24.30;;;20.90;60.90;;;;;;4982837;28;20491;-70
2023/11/26 09:12:50;;;;;;;23.80;23.10;;;21.00;61.00;;;;;;4989237;28;20817;-74
2023/11/26 09:15:25;;;;;;;25.60;24.60;;;21.00;61.10;;;;;;4985452;28;20526;-70
2023/11/26 09:17:53;;;;;;;24.30;23.43;;;21.00;61.30;;;;;;4978181;28;20558;-74
2023/11/26 09:20:24;;;;;;;25.10;24.30;;;21.10;61.80;;;;;;4985521;28;20849;-72
2023/11/26 09:22:53;;;;;;;23.10;22.20;;;21.10;61.60;;;;;;4985557;28;20446;-70
2023/11/26 09:25:23;;;;;;;23.23;22.23;;;21.20;60.80;;;;;;4988469;28;20458;-69
2023/11/26 09:27:51;;;;;;;23.53;22.77;;;21.20;60.70;;;;;;4985030;28;20463;-68
2023/11/26 09:30:22;;;;;;;22.42;21.55;;;21.20;61.10;;;;;;4984930;28;20474;-66
2023/11/26 09:32:49;;;;;;;20.85;20.05;;;21.30;61.30;;;;;;4984566;28;20444;-66
2023/11/26 09:35:24;;;;;;;24.50;23.70;;;21.30;60.80;;;;;;4986445;28;20723;-72
2023/11/26 09:37:56;;;;;;;25.70;24.70;;;21.40;61.20;;;;;;4980444;28;20462;-73
2023/11/26 09:40:24;;;;;;;25.50;24.60;;;21.50;60.00;;;;;;4986282;28;20444;-71
2023/11/26 09:42:58;;;;;;;23.73;22.93;;;21.50;59.80;;;;;;4979060;28;20987;-70
2023/11/26 09:45:27;;;;;;;24.60;23.50;;;21.40;59.70;;;;;;4988306;28;20468;-71
2023/11/26 09:47:55;;;;;;;26.17;25.27;;;21.50;59.70;;;;;;4984767;28;20496;-71
2023/11/26 09:50:24;;;;;;;24.57;23.67;;;21.50;59.70;;;;;;4986894;28;20525;-70
2023/11/26 09:52:55;;;;;;;24.27;23.27;;;21.50;59.70;;;;;;4984644;28;20439;-68
2023/11/26 09:55:22;;;;;;;25.73;24.90;;;21.50;59.80;;;;;;4983105;28;20475;-71
2023/11/26 09:57:53;;;;;;;27.90;26.90;;;21.50;59.70;;;;;;4982891;28;20491;-70
2023/11/26 10:00:23;;;;;;;26.70;25.80;;;21.50;59.60;;;;;;4984101;28;20475;-67
2023/11/26 10:03:00;;;;;;;25.00;23.77;;;21.50;59.40;;;;;;4984531;28;20451;-72
2023/11/26 10:05:28;;;;;;;24.73;23.77;;;21.60;61.20;;;;;;4986124;28;20439;-71
2023/11/26 10:08:02;;;;;;;25.07;24.13;;;21.60;60.50;;;;;;4982617;28;20467;-71
2023/11/26 10:10:29;;;;;;;24.07;23.20;;;21.70;60.50;;;;;;4987718;28;20467;-71
2023/11/26 10:13:04;;;;;;;24.30;23.50;;;21.70;60.60;;;;;;4978043;28;20535;-71
2023/11/26 10:15:33;;;;;;;26.83;25.93;;;21.70;60.30;;;;;;4987726;28;20475;-70
2023/11/26 10:18:04;;;;;;;27.27;26.27;;;21.80;60.40;;;;;;4982953;28;20466;-75
2023/11/26 10:20:33;;;;;;;27.43;26.43;;;21.80;60.20;;;;;;4984120;28;20503;-76
2023/11/26 10:23:03;;;;;;;23.90;23.20;;;21.80;60.00;;;;;;4985455;28;20443;-74
2023/11/26 10:25:30;;;;;;;24.43;23.23;;;21.90;60.90;;;;;;4986438;28;20811;-74
2023/11/26 10:28:00;;;;;;;25.10;24.20;;;21.90;60.00;;;;;;4983331;28;21221;-73
2023/11/26 10:30:29;;;;;;;26.50;25.40;;;22.00;60.00;;;;;;4981091;28;20854;-72
2023/11/26 10:33:01;;;;;;;26.30;25.40;;;22.00;59.90;;;;;;4981735;28;20447;-69
2023/11/26 10:35:48;;;;;;;24.43;23.63;;;22.10;59.90;;;;;;4982340;28;20578;-73
2023/11/26 10:38:18;;;;;;;26.50;25.60;;;22.10;59.70;;;;;;4982308;28;20540;-73
2023/11/26 10:40:53;;;;;;;26.13;25.23;;;22.20;59.70;;;;;;4986598;28;20530;-67
2023/11/26 10:43:24;;;;;;;26.13;25.23;;;22.20;59.60;;;;;;4982166;28;20455;-70
2023/11/26 10:45:51;;;;;;;26.03;25.13;;;22.20;59.60;;;;;;4990212;28;20444;-69
2023/11/26 10:48:19;;;;;;;24.87;23.97;;;22.30;59.50;;;;;;4986027;28;20917;-68
2023/11/26 10:50:54;;;;;;;27.30;26.40;;;22.30;59.40;;;;;;4978108;28;20456;-68
2023/11/26 10:53:38;;;;;;;26.67;25.77;;;22.30;59.20;;;;;;4985516;28;20446;-68
2023/11/26 10:56:08;;;;;;;26.93;26.03;;;22.40;59.20;;;;;;4982260;28;20427;-76
2023/11/26 10:58:43;;;;;;;25.80;24.80;;;22.50;59.40;;;;;;4981963;28;20491;-73
2023/11/26 11:01:10;;;;;;;27.50;26.40;;;22.50;59.30;;;;;;4979890;28;20479;-75
2023/11/26 11:03:37;;;;;;;27.53;26.63;;;22.50;59.20;;;;;;4985247;28;20435;-74
2023/11/26 11:06:05;;;;;;;29.50;28.50;;;22.50;59.10;;;;;;4982596;28;20455;-71
2023/11/26 11:08:33;;;;;;;28.10;27.20;;;22.60;59.10;;;;;;4982048;28;21157;-74
2023/11/26 11:11:10;;;;;;;27.40;26.50;;;22.60;59.00;;;;;;4986977;28;20538;-72
2023/11/26 11:13:40;;;;;;;24.70;23.83;;;22.60;58.90;;;;;;4985662;28;20466;-71
2023/11/26 11:16:07;;;;;;;25.00;24.10;;;22.60;58.70;;;;;;4978015;28;20502;-69
2023/11/26 11:18:45;;;;;;;26.60;25.70;;;22.60;58.70;;;;;;4984847;28;20462;-70
2023/11/26 11:21:13;;;;;;;27.03;25.77;;;22.60;58.60;;;;;;4981093;28;20463;-74
2023/11/26 11:23:41;;;;;;;23.85;22.95;;;22.60;58.90;;;;;;4983689;28;20437;-72
2023/11/26 11:26:09;;;;;;;29.20;28.10;;;22.60;59.10;;;;;;4981557;28;20440;-74
2023/11/26 11:28:40;;;;;;;26.53;25.63;;;22.60;59.10;;;;;;4981482;28;20496;-74
2023/11/26 11:31:09;;;;;;;27.07;26.17;;;22.70;58.90;;;;;;4981061;28;20439;-73
2023/11/26 11:33:36;;;;;;;28.03;27.13;;;22.70;58.80;;;;;;4984731;28;20867;-75
2023/11/26 11:36:04;;;;;;;25.93;25.13;;;22.70;58.70;;;;;;4982019;28;20480;-75
2023/11/26 11:38:32;;;;;;;26.83;25.93;;;22.70;58.60;;;;;;4981247;28;20858;-73
2023/11/26 11:41:08;;;;;;;29.00;28.00;;;22.70;58.60;;;;;;4986534;28;20447;-74
2023/11/26 11:43:36;;;;;;;27.20;26.20;;;22.70;58.40;;;;;;4981477;28;20800;-75
2023/11/26 11:46:36;;;;;;;28.37;27.37;;;22.70;58.80;;;;;;4983898;28;20458;-74
2023/11/26 11:49:05;;;;;;;26.40;25.50;;;22.70;58.90;;;;;;4981195;28;20547;-74
2023/11/26 11:51:36;;;;;;;28.50;27.13;;;22.70;59.20;;;;;;4981064;28;20478;-72
2023/11/26 11:54:32;;;;;;;27.20;26.30;;;22.70;59.20;;;;;;4984293;28;20458;-73
2023/11/26 11:57:01;;;;;;;26.33;25.43;;;22.70;59.20;;;;;;4988788;28;20473;-73
2023/11/26 11:59:28;;;;;;;26.43;25.50;;;22.80;59.10;;;;;;4986593;28;20466;-72
2023/11/26 12:01:58;;;;;;;26.27;25.20;;;22.80;59.30;;;;;;4982604;28;20486;-73
2023/11/26 12:04:46;;;;;;;26.00;25.20;;;22.80;59.40;;;;;;4982773;28;20436;-70
2023/11/26 12:07:19;;;;;;;29.87;28.80;;;22.90;59.40;;;;;;4983376;28;20500;-71
2023/11/26 12:09:56;;;;;;;28.70;27.70;;;22.90;58.50;;;;;;4978084;28;20511;-73
2023/11/26 12:12:24;;;;;;;28.63;27.63;;;22.90;58.90;;;;;;4980692;28;20458;-74
2023/11/26 12:14:55;;;;;;;29.87;28.77;;;22.90;59.10;;;;;;4985829;28;21021;-74
2023/11/26 12:17:26;;;;;;;31.60;30.53;;;22.90;59.40;;;;;;4979279;28;20550;-72
2023/11/26 12:20:00;;;;;;;29.33;28.03;;;23.00;59.80;;;;;;4988351;28;20443;-76
2023/11/26 12:22:31;;;;;;;26.90;26.00;;;23.00;59.40;;;;;;4985167;28;20467;-75
2023/11/26 12:25:05;;;;;;;26.70;25.80;;;23.00;59.40;;;;;;4980749;28;20442;-73
2023/11/26 12:27:36;;;;;;;28.13;27.13;;;23.10;59.40;;;;;;4979109;28;20466;-73
2023/11/26 12:30:11;;;;;;;28.93;27.93;;;23.10;59.20;;;;;;4982774;28;20459;-77
2023/11/26 12:32:38;;;;;;;30.97;29.87;;;23.10;59.00;;;;;;4980624;28;20451;-75
2023/11/26 12:35:11;;;;;;;27.70;26.80;;;23.20;59.00;;;;;;4988487;28;20559;-75
2023/11/26 12:37:38;;;;;;;26.73;25.63;;;23.20;59.00;;;;;;4987898;28;20501;-71
2023/11/26 12:40:08;;;;;;;25.20;24.40;;;23.20;58.50;;;;;;4981480;28;20451;-71